Time;durP1;ratioP1;P1;durP2;ratioP2;P2;SDS_P1;SDS_P2;PMS_P1;PMS_P2;Temp;Humidity;BMP_temperature;BMP_pressure;BME280_temperature;BME280_humidity;BME280_pressure;Samples;Min_cycle;Max_cycle;Signal;HPM_P1;HPM_P2
2021/11/28 00:01:06;;;;;;;16.95;9.52;;;;;;;;;;5051092;28;20091;-54
2021/11/28 00:03:33;;;;;;;21.33;10.85;;;;;;;;;;5054360;28;20029;-53
2021/11/28 00:06:02;;;;;;;19.80;10.45;;;;;;;;;;5056433;28;20032;-52
2021/11/28 00:13:54;;;;;;;17.73;9.45;;;;;;;;;;5054024;28;20063;-54
2021/11/28 00:16:20;;;;;;;20.02;9.98;;;;;;;;;;5056804;28;20477;-54
2021/11/28 00:18:46;;;;;;;18.92;9.25;;;;;;;;;;5047836;28;20035;-53
2021/11/28 00:21:13;;;;;;;18.08;9.00;;;;;;;;;;5057444;28;20029;-52
2021/11/28 00:23:39;;;;;;;17.08;8.93;;;;;;;;;;5059989;28;20052;-52
2021/11/28 00:26:05;;;;;;;19.80;9.73;;;;;;;;;;5055762;28;20056;-55
2021/11/28 00:28:31;;;;;;;19.30;10.05;;;;;;;;;;5052889;28;20037;-51
2021/11/28 00:30:57;;;;;;;17.98;9.02;;;;;;;;;;5055285;28;20028;-53
2021/11/28 00:33:23;;;;;;;17.05;8.93;;;;;;;;;;5061320;28;20056;-55
2021/11/28 00:35:49;;;;;;;18.00;9.30;;;;;;;;;;5058928;28;20135;-55
2021/11/28 00:38:15;;;;;;;16.63;8.50;;;;;;;;;;5056990;28;20032;-52
2021/11/28 00:40:42;;;;;;;17.20;8.90;;;;;;;;;;5060296;28;20516;-52
2021/11/28 00:43:08;;;;;;;18.13;8.18;;;;;;;;;;5053103;28;20036;-55
2021/11/28 00:45:34;;;;;;;16.67;8.77;;;;;;;;;;5047492;28;20041;-57
2021/11/28 00:48:00;;;;;;;19.13;8.65;;;;;;;;;;5047548;28;20474;-57
2021/11/28 00:50:38;;;;;;;15.95;8.25;;;;;;;;;;5044758;28;20029;-57
2021/11/28 00:53:04;;;;;;;17.25;8.98;;;;;;;;;;5046153;28;20052;-57
2021/11/28 00:55:30;;;;;;;17.73;8.45;;;;;;;;;;5043621;28;20032;-57
2021/11/28 00:57:56;;;;;;;17.42;8.45;;;;;;;;;;5039308;28;20112;-57
2021/11/28 01:00:22;;;;;;;18.08;8.98;;;;;;;;;;5050203;28;20029;-56
2021/11/28 01:02:48;;;;;;;18.15;9.45;;;;;;;;;;5053564;28;20491;-56
2021/11/28 01:05:14;;;;;;;15.23;7.63;;;;;;;;;;5060034;28;20025;-55
2021/11/28 01:07:40;;;;;;;15.55;8.07;;;;;;;;;;5053840;28;20057;-57
2021/11/28 01:10:07;;;;;;;16.58;8.15;;;;;;;;;;5054113;28;20029;-57
2021/11/28 01:12:33;;;;;;;13.60;7.55;;;;;;;;;;5054794;28;20059;-56
2021/11/28 01:14:59;;;;;;;14.55;7.82;;;;;;;;;;5056525;28;20053;-57
2021/11/28 01:17:26;;;;;;;16.77;8.07;;;;;;;;;;5055582;28;20114;-57
2021/11/28 01:19:52;;;;;;;15.60;7.65;;;;;;;;;;5055350;28;20523;-55
2021/11/28 01:22:19;;;;;;;14.90;7.40;;;;;;;;;;5056864;28;20024;-56
2021/11/28 01:24:45;;;;;;;15.98;8.18;;;;;;;;;;5059478;28;20029;-53
2021/11/28 01:27:12;;;;;;;12.98;6.97;;;;;;;;;;5051637;28;20036;-51
2021/11/28 01:29:38;;;;;;;13.27;7.05;;;;;;;;;;5058402;28;20033;-55
2021/11/28 01:32:04;;;;;;;14.90;7.75;;;;;;;;;;5054088;28;20118;-54
2021/11/28 01:34:31;;;;;;;15.98;6.90;;;;;;;;;;5055080;28;20029;-55
2021/11/28 01:36:57;;;;;;;17.35;8.10;;;;;;;;;;5056451;28;20123;-52
2021/11/28 01:39:23;;;;;;;14.07;7.65;;;;;;;;;;5063038;28;20087;-55
2021/11/28 01:41:49;;;;;;;14.70;7.75;;;;;;;;;;5055915;28;20120;-57
2021/11/28 01:44:15;;;;;;;18.23;8.13;;;;;;;;;;5055559;28;20033;-55
2021/11/28 01:46:42;;;;;;;13.95;7.13;;;;;;;;;;5056262;28;20067;-54
2021/11/28 01:49:10;;;;;;;13.40;7.13;;;;;;;;;;5050911;28;20108;-57
2021/11/28 01:51:36;;;;;;;13.60;7.15;;;;;;;;;;5058957;28;20036;-57
2021/11/28 01:54:10;;;;;;;16.17;8.07;;;;;;;;;;5042861;28;20037;-57
2021/11/28 01:56:36;;;;;;;17.35;7.63;;;;;;;;;;5057464;28;20036;-56
2021/11/28 01:59:02;;;;;;;16.23;7.28;;;;;;;;;;5049304;28;20075;-57
2021/11/28 02:01:28;;;;;;;13.52;7.28;;;;;;;;;;5055973;28;20521;-57
2021/11/28 02:03:55;;;;;;;15.18;7.60;;;;;;;;;;5056979;28;20036;-57
2021/11/28 02:06:21;;;;;;;18.83;8.40;;;;;;;;;;5052657;28;20116;-56
2021/11/28 02:08:47;;;;;;;13.38;8.05;;;;;;;;;;5053119;28;20499;-56
2021/11/28 02:11:13;;;;;;;11.85;7.25;;;;;;;;;;5053436;28;20040;-55
2021/11/28 02:13:40;;;;;;;16.17;7.78;;;;;;;;;;5054510;28;20175;-54
2021/11/28 02:16:06;;;;;;;13.25;6.90;;;;;;;;;;5055810;28;20117;-56
2021/11/28 02:18:32;;;;;;;12.27;7.00;;;;;;;;;;5052616;28;20588;-54
2021/11/28 02:20:59;;;;;;;13.65;7.43;;;;;;;;;;5046278;28;20029;-51
2021/11/28 02:23:26;;;;;;;13.05;7.13;;;;;;;;;;5046844;28;20108;-56
2021/11/28 02:25:55;;;;;;;13.98;7.15;;;;;;;;;;5053826;28;20476;-55
2021/11/28 02:28:21;;;;;;;13.80;6.63;;;;;;;;;;5054406;28;20032;-55
2021/11/28 02:30:47;;;;;;;13.32;7.25;;;;;;;;;;5055970;28;20633;-52
2021/11/28 02:33:14;;;;;;;13.73;6.90;;;;;;;;;;5058122;28;20104;-53
2021/11/28 02:35:40;;;;;;;11.73;6.70;;;;;;;;;;5055478;28;20041;-54
2021/11/28 02:38:07;;;;;;;11.00;6.60;;;;;;;;;;5056122;28;20025;-56
2021/11/28 02:40:34;;;;;;;12.63;6.95;;;;;;;;;;5046468;28;20036;-55
2021/11/28 02:43:00;;;;;;;15.05;7.43;;;;;;;;;;5060222;28;20040;-55
2021/11/28 02:45:27;;;;;;;10.70;6.22;;;;;;;;;;5059247;28;20538;-54
2021/11/28 02:47:54;;;;;;;13.80;6.80;;;;;;;;;;5050970;28;20100;-55
2021/11/28 02:50:21;;;;;;;12.32;6.53;;;;;;;;;;5047997;28;20033;-54
2021/11/28 02:52:54;;;;;;;12.68;6.70;;;;;;;;;;5039015;28;20053;-56
2021/11/28 02:55:20;;;;;;;;;;;;;;;;;;5046218;28;20066;-57
2021/11/28 02:57:46;;;;;;;11.27;6.07;;;;;;;;;;5060938;28;20344;-56
2021/11/28 03:00:12;;;;;;;14.30;6.95;;;;;;;;;;5051976;28;20036;-57
2021/11/28 03:02:38;;;;;;;12.25;6.75;;;;;;;;;;5056305;28;20029;-56
2021/11/28 03:05:05;;;;;;;11.50;6.07;;;;;;;;;;5051939;28;20556;-53
2021/11/28 03:07:30;;;;;;;13.05;6.20;;;;;;;;;;5052010;28;20029;-55
2021/11/28 03:09:56;;;;;;;13.73;6.55;;;;;;;;;;5052519;28;20029;-52
2021/11/28 03:12:22;;;;;;;14.63;6.90;;;;;;;;;;5052092;28;20116;-56
2021/11/28 03:14:48;;;;;;;12.48;6.78;;;;;;;;;;5051910;28;20033;-52
2021/11/28 03:17:14;;;;;;;14.02;5.78;;;;;;;;;;5051848;28;20107;-56
2021/11/28 03:19:41;;;;;;;10.88;5.97;;;;;;;;;;5049090;28;20037;-52
2021/11/28 03:22:07;;;;;;;12.63;7.07;;;;;;;;;;5056097;28;20033;-56
2021/11/28 03:24:33;;;;;;;10.45;5.47;;;;;;;;;;5049893;28;20033;-55
2021/11/28 03:26:59;;;;;;;12.27;6.15;;;;;;;;;;5040495;28;20043;-56
2021/11/28 03:29:26;;;;;;;10.15;6.05;;;;;;;;;;5056753;28;20029;-54
2021/11/28 03:31:54;;;;;;;13.32;6.13;;;;;;;;;;5043961;28;20028;-54
2021/11/28 03:34:20;;;;;;;10.50;5.70;;;;;;;;;;5040483;28;20096;-55
2021/11/28 03:36:51;;;;;;;9.82;6.05;;;;;;;;;;5038371;28;20116;-56
2021/11/28 03:39:19;;;;;;;10.40;6.32;;;;;;;;;;5041128;28;20529;-53
2021/11/28 03:41:46;;;;;;;11.70;6.32;;;;;;;;;;5040360;28;20179;-54
2021/11/28 03:44:12;;;;;;;13.02;7.07;;;;;;;;;;5040846;28;20033;-55
2021/11/28 03:46:38;;;;;;;15.13;6.88;;;;;;;;;;5039177;28;20029;-53
2021/11/28 03:49:04;;;;;;;10.15;5.03;;;;;;;;;;5047800;28;20078;-55
2021/11/28 03:51:31;;;;;;;13.13;6.10;;;;;;;;;;5044871;28;20361;-55
2021/11/28 03:53:57;;;;;;;13.65;6.53;;;;;;;;;;5043000;28;20026;-56
2021/11/28 03:56:23;;;;;;;10.18;5.95;;;;;;;;;;5048561;28;20032;-57
2021/11/28 03:58:50;;;;;;;11.23;5.70;;;;;;;;;;5046282;28;20109;-57
2021/11/28 04:01:16;;;;;;;9.73;5.65;;;;;;;;;;5043602;28;20123;-57
2021/11/28 04:03:43;;;;;;;9.13;5.00;;;;;;;;;;5047071;28;20133;-57
2021/11/28 04:06:09;;;;;;;9.93;6.25;;;;;;;;;;5045477;28;20037;-56
2021/11/28 04:08:36;;;;;;;10.75;6.15;;;;;;;;;;5046209;28;20032;-55
2021/11/28 04:11:02;;;;;;;11.93;6.20;;;;;;;;;;5047031;28;20163;-56
2021/11/28 04:13:28;;;;;;;9.85;5.65;;;;;;;;;;5047833;28;20144;-55
2021/11/28 04:15:55;;;;;;;10.60;5.65;;;;;;;;;;5045933;28;20100;-55
2021/11/28 04:18:21;;;;;;;10.40;5.35;;;;;;;;;;5046017;28;20104;-56
2021/11/28 04:20:47;;;;;;;11.70;6.13;;;;;;;;;;5043661;28;20453;-53
2021/11/28 04:23:13;;;;;;;10.00;5.95;;;;;;;;;;5042751;28;20477;-52
2021/11/28 04:25:39;;;;;;;11.65;6.28;;;;;;;;;;5042707;28;20091;-52
2021/11/28 04:28:06;;;;;;;11.38;5.78;;;;;;;;;;5044838;28;20108;-54
2021/11/28 04:30:32;;;;;;;9.38;5.38;;;;;;;;;;5048396;28;20037;-53
2021/11/28 04:32:58;;;;;;;12.25;5.60;;;;;;;;;;5049406;28;20045;-54
2021/11/28 04:35:25;;;;;;;12.88;5.78;;;;;;;;;;5047695;28;20135;-54
2021/11/28 04:37:51;;;;;;;11.07;5.70;;;;;;;;;;5044250;28;20112;-55
2021/11/28 04:40:17;;;;;;;9.82;4.93;;;;;;;;;;5045695;28;20025;-55
2021/11/28 04:42:43;;;;;;;9.68;5.35;;;;;;;;;;5043898;28;20024;-56
2021/11/28 04:45:10;;;;;;;13.40;5.57;;;;;;;;;;5046528;28;20733;-56
2021/11/28 04:47:36;;;;;;;13.73;6.15;;;;;;;;;;5046681;28;20021;-56
2021/11/28 04:50:03;;;;;;;10.80;5.70;;;;;;;;;;5041641;28;20040;-54
2021/11/28 04:52:29;;;;;;;11.85;5.90;;;;;;;;;;5042279;28;20369;-54
2021/11/28 04:54:55;;;;;;;10.68;5.85;;;;;;;;;;5045018;28;20024;-56
2021/11/28 04:57:21;;;;;;;10.02;5.80;;;;;;;;;;5047362;28;20468;-56
2021/11/28 04:59:48;;;;;;;11.50;5.43;;;;;;;;;;5043683;28;20057;-52
2021/11/28 05:02:14;;;;;;;15.02;6.13;;;;;;;;;;5046217;28;20029;-56
2021/11/28 05:04:41;;;;;;;11.77;5.78;;;;;;;;;;5044638;28;20064;-52
2021/11/28 05:07:07;;;;;;;11.15;5.43;;;;;;;;;;5046501;28;20112;-55
2021/11/28 05:09:33;;;;;;;9.38;5.20;;;;;;;;;;5043404;28;20533;-53
2021/11/28 05:11:59;;;;;;;13.00;6.05;;;;;;;;;;5047303;28;20029;-53
2021/11/28 05:14:25;;;;;;;11.27;5.90;;;;;;;;;;5043901;28;20465;-55
2021/11/28 05:16:51;;;;;;;12.20;6.10;;;;;;;;;;5042732;28;20112;-55
2021/11/28 05:19:18;;;;;;;11.82;6.05;;;;;;;;;;5041641;28;20104;-55
2021/11/28 05:21:44;;;;;;;10.65;6.00;;;;;;;;;;5043945;28;20064;-55
2021/11/28 05:24:10;;;;;;;9.93;5.60;;;;;;;;;;5046084;28;20029;-54
2021/11/28 05:26:36;;;;;;;12.60;5.85;;;;;;;;;;5043823;28;20041;-55
2021/11/28 05:29:02;;;;;;;10.55;5.60;;;;;;;;;;5040884;28;20029;-53
2021/11/28 05:31:28;;;;;;;10.88;5.97;;;;;;;;;;5047122;28;20039;-55
2021/11/28 05:33:55;;;;;;;11.73;6.28;;;;;;;;;;5046029;28;20404;-53
2021/11/28 05:36:21;;;;;;;10.70;6.10;;;;;;;;;;5045698;28;20045;-54
2021/11/28 05:38:47;;;;;;;13.88;5.63;;;;;;;;;;5048449;28;20098;-52
2021/11/28 05:41:13;;;;;;;13.77;6.45;;;;;;;;;;5042270;28;20060;-54
2021/11/28 05:43:42;;;;;;;11.57;6.20;;;;;;;;;;5049275;28;20036;-53
2021/11/28 05:46:09;;;;;;;10.95;5.88;;;;;;;;;;5044700;28;20025;-52
2021/11/28 05:48:35;;;;;;;12.50;6.00;;;;;;;;;;5041700;28;20140;-55
2021/11/28 05:51:01;;;;;;;11.25;5.68;;;;;;;;;;5043722;28;20059;-54
2021/11/28 05:53:27;;;;;;;17.55;6.45;;;;;;;;;;5043850;28;20029;-56
2021/11/28 05:55:54;;;;;;;12.82;5.88;;;;;;;;;;5048482;28;20468;-56
2021/11/28 05:58:20;;;;;;;12.40;6.00;;;;;;;;;;5052493;28;20365;-55
2021/11/28 06:00:46;;;;;;;15.60;6.95;;;;;;;;;;5047332;28;20373;-56
2021/11/28 06:03:12;;;;;;;12.52;6.47;;;;;;;;;;5039309;28;20040;-54
2021/11/28 06:05:39;;;;;;;9.95;5.85;;;;;;;;;;5048286;28;20376;-56
2021/11/28 06:08:05;;;;;;;14.10;7.15;;;;;;;;;;5044055;28;20385;-53
2021/11/28 06:10:31;;;;;;;14.40;7.20;;;;;;;;;;5043591;28;20037;-55
2021/11/28 06:12:57;;;;;;;9.95;5.82;;;;;;;;;;5044970;28;20439;-50
2021/11/28 06:15:23;;;;;;;16.45;6.82;;;;;;;;;;5042974;28;20029;-56
2021/11/28 06:17:49;;;;;;;11.30;5.85;;;;;;;;;;5041814;28;20108;-56
2021/11/28 06:20:15;;;;;;;16.48;7.18;;;;;;;;;;5042860;28;20079;-54
2021/11/28 06:22:41;;;;;;;14.55;6.45;;;;;;;;;;5042804;28;20461;-52
2021/11/28 06:25:07;;;;;;;11.73;6.32;;;;;;;;;;5045101;28;20083;-53
2021/11/28 06:27:33;;;;;;;12.82;6.95;;;;;;;;;;5041024;28;20525;-55
2021/11/28 06:29:59;;;;;;;13.07;7.35;;;;;;;;;;5047065;28;20032;-53
2021/11/28 06:32:25;;;;;;;14.60;6.38;;;;;;;;;;5038735;28;20695;-54
2021/11/28 06:34:52;;;;;;;12.43;6.68;;;;;;;;;;5042950;28;20041;-53
2021/11/28 06:37:18;;;;;;;12.80;6.88;;;;;;;;;;5047067;28;20120;-54
2021/11/28 06:39:44;;;;;;;12.75;6.10;;;;;;;;;;5047305;28;20099;-53
2021/11/28 06:42:10;;;;;;;13.35;6.90;;;;;;;;;;5042048;28;20036;-54
2021/11/28 06:44:36;;;;;;;17.20;7.05;;;;;;;;;;5040212;28;20385;-51
2021/11/28 06:47:02;;;;;;;13.60;6.68;;;;;;;;;;5042853;28;20041;-52
2021/11/28 06:49:28;;;;;;;15.68;6.95;;;;;;;;;;5043957;28;20078;-55
2021/11/28 06:51:55;;;;;;;12.25;6.55;;;;;;;;;;5046155;28;20036;-56
2021/11/28 06:54:21;;;;;;;11.80;6.30;;;;;;;;;;5041417;28;20021;-56
2021/11/28 06:56:47;;;;;;;12.60;6.97;;;;;;;;;;5042377;28;20029;-56
2021/11/28 06:59:13;;;;;;;14.48;6.57;;;;;;;;;;5043275;28;20111;-54
2021/11/28 07:01:39;;;;;;;17.58;8.27;;;;;;;;;;5044020;28;20060;-54
2021/11/28 07:04:05;;;;;;;13.48;6.65;;;;;;;;;;5042502;28;20056;-54
2021/11/28 07:06:31;;;;;;;16.67;7.75;;;;;;;;;;5042679;28;20489;-56
2021/11/28 07:08:57;;;;;;;12.48;6.88;;;;;;;;;;5044635;28;20436;-54
2021/11/28 07:11:23;;;;;;;12.32;7.28;;;;;;;;;;5042079;28;20029;-56
2021/11/28 07:13:51;;;;;;;16.80;8.23;;;;;;;;;;5041425;28;20520;-54
2021/11/28 07:16:17;;;;;;;14.73;7.55;;;;;;;;;;5040354;28;20021;-55
2021/11/28 07:18:44;;;;;;;17.00;8.02;;;;;;;;;;5038324;28;20458;-50
2021/11/28 07:21:11;;;;;;;14.63;7.32;;;;;;;;;;5043947;28;20032;-51
2021/11/28 07:23:38;;;;;;;11.75;6.28;;;;;;;;;;5044862;28;20386;-51
2021/11/28 07:26:04;;;;;;;15.63;7.38;;;;;;;;;;5041600;28;20030;-54
2021/11/28 07:28:30;;;;;;;13.90;7.30;;;;;;;;;;5042201;28;20090;-55
2021/11/28 07:30:56;;;;;;;10.77;6.20;;;;;;;;;;5043009;28;20037;-54
2021/11/28 07:33:22;;;;;;;15.13;7.28;;;;;;;;;;5044520;28;20099;-54
2021/11/28 07:35:48;;;;;;;13.68;6.65;;;;;;;;;;5043293;28;20053;-53
2021/11/28 07:38:14;;;;;;;15.07;7.57;;;;;;;;;;5040805;28;20465;-53
2021/11/28 07:40:40;;;;;;;18.60;8.88;;;;;;;;;;5043768;28;20504;-53
2021/11/28 07:43:06;;;;;;;17.55;8.50;;;;;;;;;;5040743;28;20030;-53
2021/11/28 07:45:32;;;;;;;19.13;7.90;;;;;;;;;;5039865;28;20037;-56
2021/11/28 07:47:58;;;;;;;17.02;8.45;;;;;;;;;;5042532;28;20033;-56
2021/11/28 07:50:25;;;;;;;14.90;8.02;;;;;;;;;;5040214;28;20091;-56
2021/11/28 07:52:51;;;;;;;15.35;7.97;;;;;;;;;;5044837;28;20039;-56
2021/11/28 07:55:17;;;;;;;18.30;7.80;;;;;;;;;;5044536;28;20025;-56
2021/11/28 07:57:44;;;;;;;12.38;6.32;;;;;;;;;;5043560;28;20480;-54
2021/11/28 08:00:11;;;;;;;14.15;7.65;;;;;;;;;;5044536;28;20029;-55
2021/11/28 08:02:37;;;;;;;17.58;8.25;;;;;;;;;;5044535;28;20072;-53
2021/11/28 08:05:04;;;;;;;11.77;6.78;;;;;;;;;;5041242;28;20493;-55
2021/11/28 08:07:29;;;;;;;14.50;7.45;;;;;;;;;;5044995;28;20026;-55
2021/11/28 08:09:55;;;;;;;16.38;7.93;;;;;;;;;;5039737;28;20531;-52
2021/11/28 08:12:22;;;;;;;15.40;7.15;;;;;;;;;;5054582;28;20060;-54
2021/11/28 08:14:48;;;;;;;18.35;7.63;;;;;;;;;;5044037;28;20136;-54
2021/11/28 08:17:14;;;;;;;14.48;7.55;;;;;;;;;;5041324;28;20112;-51
2021/11/28 08:19:43;;;;;;;12.82;7.20;;;;;;;;;;5039796;28;20021;-53
2021/11/28 08:22:09;;;;;;;14.95;7.57;;;;;;;;;;5044444;28;20025;-56
2021/11/28 08:24:35;;;;;;;15.43;7.93;;;;;;;;;;5040137;28;20044;-56
2021/11/28 08:27:02;;;;;;;16.23;8.25;;;;;;;;;;5047932;28;20465;-53
2021/11/28 08:29:28;;;;;;;16.33;7.72;;;;;;;;;;5045862;28;20423;-56
2021/11/28 08:31:54;;;;;;;18.65;8.13;;;;;;;;;;5041494;28;20087;-56
2021/11/28 08:34:20;;;;;;;19.65;9.10;;;;;;;;;;5044397;28;20342;-55
2021/11/28 08:36:46;;;;;;;19.55;8.85;;;;;;;;;;5047730;28;20033;-55
2021/11/28 08:39:12;;;;;;;16.00;7.90;;;;;;;;;;5046219;28;20035;-53
2021/11/28 08:41:39;;;;;;;15.55;7.40;;;;;;;;;;5050559;28;20465;-56
2021/11/28 08:44:06;;;;;;;13.52;7.25;;;;;;;;;;5047338;28;20144;-55
2021/11/28 08:46:33;;;;;;;16.60;7.55;;;;;;;;;;5049710;28;20033;-55
2021/11/28 08:48:59;;;;;;;16.52;7.28;;;;;;;;;;5044801;28;20025;-55
2021/11/28 08:51:26;;;;;;;15.05;7.50;;;;;;;;;;5044921;28;20474;-56
2021/11/28 08:53:52;;;;;;;15.65;6.85;;;;;;;;;;5042191;28;20025;-56
2021/11/28 08:56:18;;;;;;;14.30;7.28;;;;;;;;;;5047698;28;20436;-56
2021/11/28 08:58:45;;;;;;;14.45;7.45;;;;;;;;;;5047398;28;20448;-54
2021/11/28 09:01:11;;;;;;;32.30;13.82;;;;;;;;;;5046020;28;20021;-54
2021/11/28 09:03:37;;;;;;;13.32;6.35;;;;;;;;;;5045176;28;20036;-53
2021/11/28 09:06:03;;;;;;;15.73;7.45;;;;;;;;;;5046727;28;20116;-56
2021/11/28 09:08:29;;;;;;;13.85;6.30;;;;;;;;;;5047550;28;20028;-54
2021/11/28 09:10:55;;;;;;;12.73;6.75;;;;;;;;;;5045513;28;20366;-56
2021/11/28 09:13:21;;;;;;;13.57;7.00;;;;;;;;;;5042824;28;20033;-56
2021/11/28 09:15:47;;;;;;;13.63;6.68;;;;;;;;;;5043556;28;20154;-55
2021/11/28 09:18:20;;;;;;;12.30;7.20;;;;;;;;;;5046971;28;20532;-55
2021/11/28 09:20:50;;;;;;;12.60;6.03;;;;;;;;;;5046242;28;20538;-55
2021/11/28 09:25:43;;;;;;;14.63;6.43;;;;;;;;;;5041708;28;20528;-56
2021/11/28 09:28:09;;;;;;;13.40;6.68;;;;;;;;;;5044343;28;20037;-51
2021/11/28 09:30:36;;;;;;;11.93;6.60;;;;;;;;;;5044289;28;20033;-54
2021/11/28 09:33:03;;;;;;;16.58;6.20;;;;;;;;;;5046592;28;20039;-54
2021/11/28 09:35:29;;;;;;;10.63;6.28;;;;;;;;;;5043043;28;20041;-53
2021/11/28 09:37:56;;;;;;;13.60;6.80;;;;;;;;;;5048609;28;20025;-53
2021/11/28 09:40:23;;;;;;;15.13;6.78;;;;;;;;;;5045537;28;20029;-53
2021/11/28 09:42:56;;;;;;;12.55;6.47;;;;;;;;;;5044256;28;20028;-54
2021/11/28 09:45:24;;;;;;;15.23;5.93;;;;;;;;;;5048535;28;20024;-53
2021/11/28 09:47:50;;;;;;;11.85;6.55;;;;;;;;;;5045074;28;20024;-55
2021/11/28 09:50:17;;;;;;;13.75;6.40;;;;;;;;;;5045632;28;20013;-55
2021/11/28 09:52:46;;;;;;;10.05;5.72;;;;;;;;;;5045387;28;20049;-54
2021/11/28 09:55:13;;;;;;;12.07;6.78;;;;;;;;;;5046326;28;20026;-55
2021/11/28 09:57:40;;;;;;;15.85;7.10;;;;;;;;;;5049391;28;20503;-56
2021/11/28 10:00:07;;;;;;;12.38;6.45;;;;;;;;;;5048193;28;20102;-56
2021/11/28 10:02:37;;;;;;;9.98;5.40;;;;;;;;;;5043022;28;20041;-56
2021/11/28 10:05:05;;;;;;;11.13;5.47;;;;;;;;;;5045201;28;20033;-56
2021/11/28 10:07:31;;;;;;;11.57;5.35;;;;;;;;;;5046646;28;20105;-56
2021/11/28 10:09:57;;;;;;;8.07;5.07;;;;;;;;;;5043846;28;20607;-54
2021/11/28 10:12:35;;;;;;;7.20;3.75;;;;;;;;;;5042882;28;20116;-53
2021/11/28 10:15:05;;;;;;;7.70;3.80;;;;;;;;;;5044894;28;20025;-56
2021/11/28 10:17:33;;;;;;;7.60;3.50;;;;;;;;;;5046744;28;20051;-56
2021/11/28 10:20:00;;;;;;;9.93;3.88;;;;;;;;;;5050859;28;20028;-55
2021/11/28 10:22:27;;;;;;;8.23;4.07;;;;;;;;;;5045613;28;20051;-55
2021/11/28 10:25:04;;;;;;;10.13;4.15;;;;;;;;;;5046534;28;20033;-51
2021/11/28 10:27:31;;;;;;;9.15;4.10;;;;;;;;;;5047287;28;20388;-54
2021/11/28 10:29:57;;;;;;;6.93;4.00;;;;;;;;;;5046805;28;20500;-56
2021/11/28 10:32:24;;;;;;;7.78;4.55;;;;;;;;;;5050249;28;20057;-56
2021/11/28 10:34:50;;;;;;;7.80;3.90;;;;;;;;;;5049992;28;20045;-53
2021/11/28 10:37:20;;;;;;;8.93;3.65;;;;;;;;;;5047519;28;20025;-56
2021/11/28 10:39:47;;;;;;;10.73;3.67;;;;;;;;;;5049629;28;20079;-53
2021/11/28 10:42:23;;;;;;;7.85;4.30;;;;;;;;;;5050857;28;20116;-56
2021/11/28 10:45:07;;;;;;;8.18;3.58;;;;;;;;;;5051052;28;20124;-56
2021/11/28 10:47:35;;;;;;;7.97;4.07;;;;;;;;;;5050377;28;20060;-55
2021/11/28 10:50:08;;;;;;;8.88;4.32;;;;;;;;;;5052740;28;20500;-56
2021/11/28 10:52:34;;;;;;;10.05;4.13;;;;;;;;;;5050662;28;20044;-55
2021/11/28 10:55:10;;;;;;;11.82;4.20;;;;;;;;;;5049914;28;20029;-53
2021/11/28 10:57:35;;;;;;;5.70;3.10;;;;;;;;;;5049931;28;20078;-52
2021/11/28 11:00:02;;;;;;;6.18;3.17;;;;;;;;;;5049988;28;20024;-56
2021/11/28 11:02:37;;;;;;;9.45;3.40;;;;;;;;;;5048502;28;20033;-57
2021/11/28 11:05:05;;;;;;;4.85;2.83;;;;;;;;;;5043537;28;20052;-55
2021/11/28 11:07:41;;;;;;;5.20;3.05;;;;;;;;;;5042987;28;20052;-55
2021/11/28 11:10:15;;;;;;;6.10;3.17;;;;;;;;;;5045504;28;20029;-56
2021/11/28 11:12:44;;;;;;;6.80;3.75;;;;;;;;;;5044192;28;20074;-56
2021/11/28 11:15:13;;;;;;;8.60;3.20;;;;;;;;;;5045141;28;20017;-55
2021/11/28 11:17:55;;;;;;;7.10;2.90;;;;;;;;;;5042531;28;20025;-57
2021/11/28 11:20:25;;;;;;;5.75;3.15;;;;;;;;;;5044617;28;20052;-57
2021/11/28 11:22:51;;;;;;;9.30;2.85;;;;;;;;;;5042289;28;20055;-55
2021/11/28 11:25:19;;;;;;;5.80;3.30;;;;;;;;;;5044755;28;20048;-56
2021/11/28 11:27:45;;;;;;;7.68;2.72;;;;;;;;;;5047868;28;20091;-55
2021/11/28 11:30:12;;;;;;;7.20;3.60;;;;;;;;;;5049051;28;20023;-55
2021/11/28 11:32:46;;;;;;;6.75;3.30;;;;;;;;;;5048206;28;20123;-51
2021/11/28 11:35:16;;;;;;;5.80;2.97;;;;;;;;;;5045547;28;20057;-55
2021/11/28 11:37:42;;;;;;;5.00;2.45;;;;;;;;;;5040992;28;20385;-55
2021/11/28 11:40:10;;;;;;;5.47;2.53;;;;;;;;;;5041600;28;20026;-53
2021/11/28 11:42:36;;;;;;;6.90;3.13;;;;;;;;;;5041664;28;20043;-57
2021/11/28 11:45:03;;;;;;;6.55;3.13;;;;;;;;;;5044924;28;20081;-53
2021/11/28 11:47:29;;;;;;;5.70;2.58;;;;;;;;;;5049336;28;20029;-56
2021/11/28 11:49:55;;;;;;;4.10;2.78;;;;;;;;;;5044929;28;20104;-55
2021/11/28 11:52:22;;;;;;;4.05;2.35;;;;;;;;;;5044350;28;20201;-56
2021/11/28 11:55:07;;;;;;;6.93;2.88;;;;;;;;;;5045603;28;20029;-53
2021/11/28 11:57:45;;;;;;;8.02;2.72;;;;;;;;;;5041400;28;20028;-56
2021/11/28 12:00:19;;;;;;;4.85;2.53;;;;;;;;;;5044632;28;20026;-57
2021/11/28 12:02:47;;;;;;;4.80;2.30;;;;;;;;;;5047971;28;20056;-57
2021/11/28 12:05:25;;;;;;;10.00;2.33;;;;;;;;;;5044036;28;20108;-53
2021/11/28 12:07:52;;;;;;;3.80;2.15;;;;;;;;;;5045242;28;20524;-58
2021/11/28 12:10:36;;;;;;;4.55;2.05;;;;;;;;;;5052678;28;20136;-58
2021/11/28 12:13:05;;;;;;;3.45;1.70;;;;;;;;;;5051913;28;20679;-57
2021/11/28 12:15:35;;;;;;;3.88;2.00;;;;;;;;;;5054435;28;20040;-54
2021/11/28 12:18:01;;;;;;;5.03;1.90;;;;;;;;;;5040910;28;20400;-56
2021/11/28 12:20:54;;;;;;;5.13;2.05;;;;;;;;;;5042968;28;20029;-57
2021/11/28 12:23:38;;;;;;;8.10;2.42;;;;;;;;;;5042949;28;20037;-56
2021/11/28 12:26:24;;;;;;;8.10;2.28;;;;;;;;;;5043915;28;20062;-58
2021/11/28 12:28:50;;;;;;;4.25;1.92;;;;;;;;;;5043314;28;20041;-57
2021/11/28 12:31:25;;;;;;;4.00;1.85;;;;;;;;;;5047005;28;20033;-57
2021/11/28 12:33:51;;;;;;;4.60;1.98;;;;;;;;;;5044248;28;20111;-55
2021/11/28 12:36:36;;;;;;;4.85;1.90;;;;;;;;;;5043287;28;20056;-53
2021/11/28 12:39:21;;;;;;;5.50;2.22;;;;;;;;;;5042175;28;20024;-57
2021/11/28 12:41:48;;;;;;;4.72;2.38;;;;;;;;;;5044443;28;20052;-56
2021/11/28 12:44:18;;;;;;;5.47;2.47;;;;;;;;;;5051938;28;20400;-56
2021/11/28 12:46:49;;;;;;;3.88;1.90;;;;;;;;;;5052730;28;20086;-55
2021/11/28 12:49:34;;;;;;;4.72;2.13;;;;;;;;;;5053147;28;20029;-56
2021/11/28 12:52:15;;;;;;;3.28;2.10;;;;;;;;;;5052592;28;20037;-56
2021/11/28 12:54:42;;;;;;;5.20;2.50;;;;;;;;;;5052841;28;20469;-55
2021/11/28 12:57:20;;;;;;;9.15;2.50;;;;;;;;;;5049173;28;20112;-53
2021/11/28 13:00:05;;;;;;;6.10;2.58;;;;;;;;;;5047685;28;20116;-55
2021/11/28 13:02:44;;;;;;;7.18;2.72;;;;;;;;;;5048281;28;20033;-56
2021/11/28 13:05:35;;;;;;;6.25;3.03;;;;;;;;;;5045160;28;20035;-56
2021/11/28 13:08:01;;;;;;;8.13;2.80;;;;;;;;;;5052279;28;20083;-56
2021/11/28 13:10:27;;;;;;;10.13;2.67;;;;;;;;;;5045249;28;20116;-57
2021/11/28 13:12:55;;;;;;;4.05;2.90;;;;;;;;;;5044406;28;20071;-55
2021/11/28 13:15:25;;;;;;;7.13;2.80;;;;;;;;;;5047978;28;20033;-56
2021/11/28 13:17:51;;;;;;;8.52;3.17;;;;;;;;;;5048252;28;20032;-56
2021/11/28 13:20:17;;;;;;;7.13;2.88;;;;;;;;;;5050806;28;20029;-55
2021/11/28 13:22:43;;;;;;;6.30;3.58;;;;;;;;;;5046900;28;20025;-52
2021/11/28 13:25:26;;;;;;;6.32;3.13;;;;;;;;;;5048228;28;20400;-53
2021/11/28 13:27:52;;;;;;;10.38;3.67;;;;;;;;;;5040459;28;20095;-55
2021/11/28 13:30:21;;;;;;;5.53;2.90;;;;;;;;;;5050382;28;20029;-54
2021/11/28 13:32:47;;;;;;;5.13;2.80;;;;;;;;;;5053531;28;20025;-55
2021/11/28 13:35:16;;;;;;;8.40;2.85;;;;;;;;;;5049866;28;20115;-56
2021/11/28 13:37:42;;;;;;;7.45;2.40;;;;;;;;;;5044274;28;20469;-52
2021/11/28 13:40:12;;;;;;;6.78;3.22;;;;;;;;;;5044547;28;20026;-54
2021/11/28 13:42:44;;;;;;;10.30;3.38;;;;;;;;;;5044884;28;20455;-53
2021/11/28 13:45:13;;;;;;;4.50;3.20;;;;;;;;;;5044205;28;20025;-55
2021/11/28 13:47:39;;;;;;;7.95;3.92;;;;;;;;;;5040735;28;20051;-53
2021/11/28 13:50:09;;;;;;;10.80;3.63;;;;;;;;;;5047398;28;20424;-56
2021/11/28 13:52:35;;;;;;;5.93;3.20;;;;;;;;;;5054904;28;20029;-56
2021/11/28 13:55:01;;;;;;;9.02;3.33;;;;;;;;;;5047764;28;20028;-54
2021/11/28 13:57:28;;;;;;;7.07;3.53;;;;;;;;;;5043697;28;20029;-54
2021/11/28 13:59:55;;;;;;;5.68;3.15;;;;;;;;;;5045830;28;20025;-54
2021/11/28 14:02:22;;;;;;;8.88;3.63;;;;;;;;;;5046644;28;20094;-53
2021/11/28 14:04:51;;;;;;;7.15;4.47;;;;;;;;;;5045540;28;20041;-56
2021/11/28 14:07:18;;;;;;;8.10;4.18;;;;;;;;;;5047072;28;20155;-56
2021/11/28 14:09:46;;;;;;;6.03;3.30;;;;;;;;;;5045366;28;20025;-55
2021/11/28 14:12:22;;;;;;;8.40;3.83;;;;;;;;;;5042511;28;20029;-56
2021/11/28 14:14:58;;;;;;;7.13;3.28;;;;;;;;;;5050086;28;20032;-52
2021/11/28 14:17:24;;;;;;;7.43;3.72;;;;;;;;;;5051578;28;20021;-55
2021/11/28 14:19:51;;;;;;;11.13;4.63;;;;;;;;;;5047095;28;20420;-53
2021/11/28 14:22:22;;;;;;;7.00;3.33;;;;;;;;;;5042355;28;20492;-55
2021/11/28 14:24:50;;;;;;;10.02;3.55;;;;;;;;;;5050367;28;20044;-52
2021/11/28 14:27:17;;;;;;;7.50;3.00;;;;;;;;;;5048054;28;20029;-56
2021/11/28 14:29:43;;;;;;;5.13;3.05;;;;;;;;;;5046734;28;20036;-55
2021/11/28 14:32:10;;;;;;;7.43;3.03;;;;;;;;;;5050541;28;20028;-55
2021/11/28 14:34:36;;;;;;;6.57;3.20;;;;;;;;;;5049931;28;20518;-56
2021/11/28 14:37:18;;;;;;;9.85;3.03;;;;;;;;;;5050182;28;20025;-56
2021/11/28 14:39:45;;;;;;;7.78;3.33;;;;;;;;;;5047615;28;20111;-56
2021/11/28 14:42:11;;;;;;;8.25;3.78;;;;;;;;;;5051256;28;20021;-56
2021/11/28 14:44:42;;;;;;;5.45;3.10;;;;;;;;;;5048927;28;20032;-56